Airfield :
LOGIN :

Register | Disclaimer

   EN    FR    IT 

 










Legend :    VFR   Marginal VFR   IFR   Intensive IFR   Very Intensive IFR
Visi :
Ceiling :
>= 8 km
>= 3000ft
5 to 8 km
1000 to 3000 ft
1500m to 5 km
500 to 1000 ft
800 to 1500m
200 to 500 ft
< 800m
< 200 ft
Symbols :   Thunderstorms  Fog  Heavy snow  Heavy precipitations  Wind > 20 kt
SIGMETs :     Misc.  Thunderstorms  Icing  Turbulence  Mountain Waves  Volcanic Ashes






- Airport Elevation : 1197 ft
- IATA code : SPM


ETAD - Spangdahlem Ab

CURRENT METAR :
  • 121256Z AUTO 20011KT 9999 SCT013 BKN020 OVC026 03/01 A2955 RMK AO2 UPB12E15RAB15E25 CIG 012V020 SLP011 P0000 T00270006 $

EXPIRED METARs :
  • 121225Z AUTO 18009KT 9999 OVC014 03/01 A2956 RMK AO2 UPB12E15RAB15E25 SLP014 $
  • 121215Z AUTO 21008KT 9999 -RA OVC014 03/01 A2957 RMK AO2 UPB12E15RAB15 SLP017 $
  • 121156Z AUTO 20011G15KT 9999 BKN016 OVC026 03/01 A2958 RMK AO2 CIG 016V026 BKN V SCT SLP021 60000 T00310007 10037 20024 58017 $
  • 121141Z AUTO 21008KT 9999 SCT016 OVC026 03/01 A2959 RMK AO2 CIG 019 RWY05 CIG 025 RWY24 SLP024 $
  • 121126Z AUTO 22010KT 9999 FEW014 OVC030 03/01 A2959 RMK AO2 SLP024 $
  • 121111Z AUTO 22012KT 9999 SCT014 BKN022 BKN029 03/01 A2960 RMK AO2 CIG 015V022 SLP028 $
  • 121056Z AUTO 21009KT 9999 SCT015 BKN023 BKN028 03/01 A2961 RMK AO2 RAE10 CIG 021V028 CIG 019 RWY24 SLP031 P0000 T00340008 $
  • 121025Z AUTO 23009KT 9999 FEW009 SCT013 OVC025 03/02 A2962 RMK AO2 RAE10 CIG 013V025 CIG 024 RWY05 SLP034 $
  • 120956Z AUTO 21012KT 9999 -RA BKN010 OVC017 03/02 A2963 RMK AO2 DZB25E34RAB49 CIG 007 RWY05 CIG 008 RWY24 SLP038 P0000 T00250016 $

TAF AMD TAF ETAD
Valid from the 12 at 12:00 until the 13 at 11:00 UTC


121230Z 1212/1311 19012G18KT 9999 BKN015 BKN025 620283 QNH2954INS
TEMPO 1212/1215 8000 -SHRA SCT015 BKN025
BECMG 1218/1219 18012G25KT 9999 OVC012 620187 QNH2920INS
BECMG 1222/1223 18012G22KT 8000 -RASN OVC007 620109 QNH2915INS
BECMG 1303/1304 18012G22KT 8000 -RA OVC004 620259 QNH2905INS TX04/1214Z TN01/1223Z



MET'MAP, your aeronautical weather chart ! - Copyright ORBIFLY December 2007 - Disclaimer

ORBIFLY MET'MAP TEAM :

Programming & Development : Alexandra Zaïnal
Concept & original design : Baudouin d'Aumeries
Assistance for programming : Marc-Olivier Méhu
Technical & hardware support : Manuel Goepfert

Contact : metmap@orbifly.com




SOURCES & CREDITS :

   NOAA